createdAt,value
2022-07-27T00:01:50.620Z,3.53
2022-07-27T00:04:18.560Z,3.13
2022-07-27T00:06:45.590Z,2.60
2022-07-27T00:09:12.662Z,7.30
2022-07-27T00:11:39.615Z,5.33
2022-07-27T00:14:06.376Z,4.53
2022-07-27T00:16:33.216Z,3.70
2022-07-27T00:19:00.044Z,3.10
2022-07-27T00:21:26.782Z,4.30
2022-07-27T00:23:54.419Z,2.60
2022-07-27T00:26:21.271Z,4.00
2022-07-27T00:28:48.600Z,4.87
2022-07-27T00:31:15.625Z,3.20
2022-07-27T00:33:42.259Z,3.33
2022-07-27T00:36:09.240Z,3.30
2022-07-27T00:38:35.912Z,3.67
2022-07-27T00:41:02.563Z,3.03
2022-07-27T00:43:29.212Z,3.87
2022-07-27T00:45:55.876Z,3.77
2022-07-27T00:48:22.676Z,3.50
2022-07-27T00:50:51.062Z,3.60
2022-07-27T00:53:17.843Z,3.57
2022-07-27T00:55:45.470Z,4.50
2022-07-27T00:58:12.583Z,3.50
2022-07-27T01:00:39.449Z,3.73
2022-07-27T01:03:09.091Z,3.77
2022-07-27T01:05:42.649Z,4.57
2022-07-27T01:08:12.684Z,3.70
2022-07-27T01:10:40.515Z,3.87
2022-07-27T01:13:12.884Z,4.27
2022-07-27T01:15:41.235Z,5.13
2022-07-27T01:18:30.168Z,4.70
2022-07-27T01:20:58.245Z,4.30
2022-07-27T01:23:25.800Z,4.60
2022-07-27T01:25:52.855Z,5.00
2022-07-27T01:28:19.745Z,5.67
2022-07-27T01:30:46.824Z,3.43
2022-07-27T01:33:13.583Z,4.20
2022-07-27T01:35:40.480Z,3.83
2022-07-27T01:38:09.234Z,4.03
2022-07-27T01:40:36.931Z,4.70
2022-07-27T01:43:05.320Z,4.30
2022-07-27T01:45:32.414Z,4.27
2022-07-27T01:47:59.247Z,3.50
2022-07-27T01:50:25.963Z,4.10
2022-07-27T01:52:52.659Z,4.60
2022-07-27T01:55:19.434Z,3.67
2022-07-27T01:57:46.195Z,3.60
2022-07-27T02:00:13.690Z,3.90
2022-07-27T02:02:41.218Z,4.43
2022-07-27T02:05:11.921Z,4.13
2022-07-27T02:07:40.648Z,3.60
2022-07-27T02:10:08.250Z,3.40
2022-07-27T02:12:37.795Z,3.87
2022-07-27T02:15:07.118Z,4.67
2022-07-27T02:17:35.196Z,4.10
2022-07-27T02:20:02.619Z,3.93
2022-07-27T02:22:29.265Z,4.60
2022-07-27T02:24:56.256Z,4.63
2022-07-27T02:27:23.283Z,4.47
2022-07-27T02:29:50.205Z,3.83
2022-07-27T02:32:17.142Z,3.97
2022-07-27T02:34:44.233Z,3.77
2022-07-27T02:37:11.019Z,3.73
2022-07-27T02:39:37.973Z,4.03
2022-07-27T02:42:04.966Z,5.17
2022-07-27T02:44:32.022Z,3.70
2022-07-27T02:47:01.821Z,5.57
2022-07-27T02:49:28.491Z,4.37
2022-07-27T02:51:55.251Z,5.37
2022-07-27T02:54:24.710Z,5.00
2022-07-27T02:56:52.724Z,4.33
2022-07-27T02:59:20.331Z,4.60
2022-07-27T03:01:47.207Z,4.97
2022-07-27T03:04:14.556Z,4.40
2022-07-27T03:06:42.068Z,4.73
2022-07-27T03:09:09.732Z,4.33
2022-07-27T03:11:36.697Z,5.10
2022-07-27T03:14:03.733Z,4.57
2022-07-27T03:16:30.554Z,4.50
2022-07-27T03:18:59.962Z,6.13
2022-07-27T03:21:26.658Z,4.77
2022-07-27T03:23:53.594Z,4.67
2022-07-27T03:26:20.346Z,5.83
2022-07-27T03:28:46.984Z,4.80
2022-07-27T03:31:13.752Z,5.40
2022-07-27T03:33:40.528Z,5.57
2022-07-27T03:36:07.361Z,4.30
2022-07-27T03:38:34.015Z,4.50
2022-07-27T03:41:00.743Z,5.07
2022-07-27T03:43:27.378Z,4.83
2022-07-27T03:45:54.102Z,4.90
2022-07-27T03:48:20.792Z,4.67
2022-07-27T03:50:47.414Z,5.33
2022-07-27T03:53:14.761Z,5.20
2022-07-27T03:55:41.468Z,5.37
2022-07-27T03:58:08.089Z,4.77
2022-07-27T04:00:34.858Z,5.50
2022-07-27T04:03:01.770Z,4.53
2022-07-27T04:05:29.313Z,4.53
2022-07-27T04:07:57.067Z,5.07
2022-07-27T04:10:25.529Z,5.47
2022-07-27T04:12:56.846Z,5.00
2022-07-27T04:15:23.497Z,4.47
2022-07-27T04:17:54.119Z,5.00
2022-07-27T04:20:23.481Z,5.27
2022-07-27T04:22:50.188Z,4.83
2022-07-27T04:25:18.100Z,5.63
2022-07-27T04:27:44.796Z,5.03
2022-07-27T04:30:12.063Z,5.20
2022-07-27T04:32:39.045Z,5.37
2022-07-27T04:35:07.230Z,5.33
2022-07-27T04:37:34.992Z,5.20
2022-07-27T04:40:01.776Z,5.40
2022-07-27T04:42:29.819Z,4.33
2022-07-27T04:44:56.745Z,5.17
2022-07-27T04:47:23.496Z,4.60
2022-07-27T04:49:50.619Z,5.00
2022-07-27T04:52:17.865Z,4.50
2022-07-27T04:54:45.553Z,5.03
2022-07-27T04:57:12.190Z,5.20
2022-07-27T04:59:38.833Z,5.30
2022-07-27T05:02:05.619Z,4.53
2022-07-27T05:04:32.311Z,5.07
2022-07-27T05:06:59.039Z,5.07
2022-07-27T05:09:25.754Z,5.73
2022-07-27T05:12:00.460Z,4.93
2022-07-27T05:14:27.267Z,4.40
2022-07-27T05:16:53.969Z,4.03
2022-07-27T05:19:20.619Z,5.03
2022-07-27T05:21:47.254Z,6.13
2022-07-27T05:24:13.968Z,4.70
2022-07-27T05:26:40.701Z,5.03
2022-07-27T05:29:07.338Z,5.13
2022-07-27T05:31:34.004Z,5.37
2022-07-27T05:34:00.880Z,4.97
2022-07-27T05:36:27.519Z,4.13
2022-07-27T05:38:54.211Z,4.10
2022-07-27T05:41:25.733Z,5.53
2022-07-27T05:43:54.576Z,5.97
2022-07-27T05:46:22.343Z,5.20
2022-07-27T05:48:50.186Z,4.53
2022-07-27T05:51:17.054Z,4.93
2022-07-27T05:53:43.764Z,4.80
2022-07-27T05:56:10.465Z,4.70
2022-07-27T05:58:37.141Z,4.30
2022-07-27T06:01:04.017Z,4.37
2022-07-27T06:03:31.256Z,4.40
2022-07-27T06:06:27.773Z,4.53
2022-07-27T06:08:54.510Z,5.37
2022-07-27T06:11:21.759Z,5.17
2022-07-27T06:13:48.376Z,4.97
2022-07-27T06:16:15.023Z,4.90
2022-07-27T06:18:41.701Z,5.00
2022-07-27T06:21:08.379Z,4.90
2022-07-27T06:23:35.086Z,4.97
2022-07-27T06:26:01.729Z,5.00
2022-07-27T06:28:28.340Z,5.33
2022-07-27T06:30:55.036Z,5.10
2022-07-27T06:33:31.633Z,4.87
2022-07-27T06:36:00.260Z,4.77
2022-07-27T06:38:28.938Z,5.73
2022-07-27T06:40:56.241Z,5.60
2022-07-27T06:43:26.346Z,4.83
2022-07-27T06:45:54.246Z,4.90
2022-07-27T06:48:21.755Z,4.77
2022-07-27T06:50:49.554Z,4.63
2022-07-27T06:53:20.847Z,5.30
2022-07-27T06:56:04.466Z,5.73
2022-07-27T06:58:32.466Z,5.40
2022-07-27T07:01:02.171Z,4.70
2022-07-27T07:03:29.650Z,5.87
2022-07-27T07:05:56.886Z,4.90
2022-07-27T07:08:23.567Z,4.97
2022-07-27T07:10:50.668Z,4.70
2022-07-27T07:13:17.342Z,4.97
2022-07-27T07:15:44.360Z,6.07
2022-07-27T07:18:12.273Z,5.40
2022-07-27T07:20:39.887Z,5.30
2022-07-27T07:23:07.714Z,6.07
2022-07-27T07:25:35.170Z,5.43
2022-07-27T07:28:02.378Z,5.13
2022-07-27T07:30:29.314Z,5.17
2022-07-27T07:32:56.792Z,5.13
2022-07-27T07:35:23.779Z,6.80
2022-07-27T07:37:50.914Z,6.77
2022-07-27T07:43:06.493Z,7.90
2022-07-27T07:45:38.963Z,6.17
2022-07-27T07:48:16.967Z,6.10
2022-07-27T07:50:43.671Z,6.30
2022-07-27T07:53:10.387Z,6.80
2022-07-27T07:55:41.167Z,5.43
2022-07-27T07:58:07.843Z,6.77
2022-07-27T08:00:52.046Z,5.97
2022-07-27T08:03:20.246Z,8.53
2022-07-27T08:05:47.416Z,7.50
2022-07-27T08:08:14.097Z,8.57
2022-07-27T08:10:40.971Z,9.50
2022-07-27T08:13:08.699Z,9.27
2022-07-27T08:15:36.507Z,8.10
2022-07-27T08:18:05.217Z,6.93
2022-07-27T08:20:32.074Z,7.87
2022-07-27T08:22:58.760Z,9.27
2022-07-27T08:25:25.426Z,7.60
2022-07-27T08:27:52.076Z,6.70
2022-07-27T08:30:20.056Z,6.67
2022-07-27T08:32:53.675Z,6.90
2022-07-27T08:35:21.064Z,6.87
2022-07-27T08:37:48.216Z,6.27
2022-07-27T08:43:02.877Z,6.40
2022-07-27T08:45:32.356Z,6.60
2022-07-27T08:47:59.664Z,6.83
2022-07-27T08:50:29.166Z,6.93
2022-07-27T08:53:09.090Z,6.70
2022-07-27T08:55:39.102Z,7.40
2022-07-27T08:58:07.278Z,6.17
2022-07-27T09:00:35.964Z,6.97
2022-07-27T09:03:03.325Z,5.97
2022-07-27T09:05:37.737Z,7.07
2022-07-27T09:08:16.632Z,7.03
2022-07-27T09:10:43.962Z,6.10
2022-07-27T09:13:20.228Z,7.07
2022-07-27T09:16:17.388Z,6.10
2022-07-27T09:18:43.394Z,7.30
2022-07-27T09:21:22.223Z,4.90
2022-07-27T09:23:54.247Z,4.40
2022-07-27T09:26:33.136Z,4.67
2022-07-27T09:29:11.874Z,4.20
2022-07-27T09:31:47.993Z,4.23
2022-07-27T09:34:28.388Z,4.00
2022-07-27T09:36:57.177Z,3.90
2022-07-27T09:39:27.285Z,5.20
2022-07-27T09:41:56.646Z,4.43
2022-07-27T09:44:43.318Z,3.93
2022-07-27T09:47:43.201Z,4.63
2022-07-27T09:50:31.096Z,3.10
2022-07-27T09:53:41.626Z,3.10
2022-07-27T09:56:06.928Z,3.40
2022-07-27T09:58:45.819Z,3.13
2022-07-27T10:01:27.401Z,3.20
2022-07-27T10:03:56.700Z,3.90
2022-07-27T10:06:25.490Z,4.00
2022-07-27T10:08:55.168Z,4.20
2022-07-27T10:11:23.411Z,3.70
2022-07-27T10:13:51.555Z,3.90
2022-07-27T10:16:21.960Z,4.90
2022-07-27T10:19:03.870Z,4.63
2022-07-27T10:21:37.286Z,4.97
2022-07-27T10:24:22.771Z,4.97
2022-07-27T10:26:49.628Z,5.87
2022-07-27T10:29:21.279Z,4.77
2022-07-27T10:31:54.079Z,5.30
2022-07-27T10:34:34.297Z,5.30
2022-07-27T10:37:17.391Z,4.23
2022-07-27T10:39:52.187Z,5.50
2022-07-27T10:42:20.192Z,5.83
2022-07-27T10:45:14.098Z,5.73
2022-07-27T10:47:45.123Z,5.40
2022-07-27T10:50:17.981Z,5.00
2022-07-27T10:52:44.629Z,5.00
2022-07-27T10:55:30.159Z,4.90
2022-07-27T10:57:57.756Z,4.37
2022-07-27T11:00:54.005Z,4.50
2022-07-27T11:03:24.616Z,3.83
2022-07-27T11:06:31.881Z,4.27
2022-07-27T11:11:49.613Z,3.83
2022-07-27T11:14:19.103Z,3.93
2022-07-27T11:16:55.907Z,4.10
2022-07-27T11:19:24.610Z,3.83
2022-07-27T11:21:53.824Z,4.13
2022-07-27T11:24:20.769Z,4.17
2022-07-27T11:26:51.925Z,4.70
2022-07-27T11:29:21.425Z,3.93
2022-07-27T11:31:56.412Z,4.60
2022-07-27T11:34:35.599Z,3.93
2022-07-27T11:37:05.717Z,4.30
2022-07-27T11:39:59.654Z,3.60
2022-07-27T11:42:23.840Z,3.60
2022-07-27T11:44:52.971Z,3.57
2022-07-27T11:47:24.074Z,3.90
2022-07-27T11:49:51.186Z,4.20
2022-07-27T11:52:18.435Z,4.00
2022-07-27T11:54:51.919Z,4.20
2022-07-27T11:57:22.727Z,2.90
2022-07-27T11:59:49.534Z,3.37
2022-07-27T12:02:19.911Z,3.50
2022-07-27T12:04:49.294Z,3.60
2022-07-27T12:07:17.053Z,3.53
2022-07-27T12:09:55.504Z,2.93
2022-07-27T12:12:26.943Z,2.80
2022-07-27T12:14:56.817Z,2.93
2022-07-27T12:17:33.437Z,3.40
2022-07-27T12:20:06.739Z,3.40
2022-07-27T12:22:43.777Z,3.37
2022-07-27T12:25:17.316Z,3.00
2022-07-27T12:28:02.044Z,3.03
2022-07-27T12:30:52.076Z,3.00
2022-07-27T12:33:32.049Z,3.40
2022-07-27T12:36:00.443Z,2.80
2022-07-27T12:38:41.546Z,2.60
2022-07-27T12:41:08.382Z,2.60
2022-07-27T12:43:35.314Z,3.17
2022-07-27T12:46:14.055Z,2.83
2022-07-27T12:48:42.658Z,2.60
2022-07-27T12:51:10.214Z,3.10
2022-07-27T12:53:37.881Z,2.70
2022-07-27T12:56:08.036Z,3.57
2022-07-27T12:58:36.104Z,2.70
2022-07-27T13:01:03.726Z,3.60
2022-07-27T13:03:30.560Z,3.10
2022-07-27T13:05:57.273Z,3.00
2022-07-27T13:08:24.005Z,3.03
2022-07-27T13:10:52.371Z,2.87
2022-07-27T13:13:24.319Z,3.10
2022-07-27T13:15:51.179Z,2.93
2022-07-27T13:18:23.153Z,2.83
2022-07-27T13:20:51.541Z,2.80
2022-07-27T13:23:18.539Z,3.00
2022-07-27T13:25:45.335Z,2.73
2022-07-27T13:28:12.527Z,2.53
2022-07-27T13:30:39.286Z,2.60
2022-07-27T13:33:06.109Z,2.70
2022-07-27T13:35:32.994Z,2.50
2022-07-27T13:37:59.670Z,2.10
2022-07-27T13:40:26.320Z,2.40
2022-07-27T13:42:52.979Z,2.30
2022-07-27T13:45:19.767Z,2.77
2022-07-27T13:47:46.636Z,3.10
2022-07-27T13:50:18.905Z,2.30
2022-07-27T13:52:48.007Z,3.40
2022-07-27T13:55:16.471Z,2.40
2022-07-27T13:57:43.653Z,4.40
2022-07-27T14:00:11.003Z,3.27
2022-07-27T14:02:37.860Z,2.70
2022-07-27T14:05:06.024Z,4.10
2022-07-27T14:07:36.657Z,3.30
2022-07-27T14:10:22.576Z,2.73
2022-07-27T14:12:49.456Z,2.10
2022-07-27T14:15:16.512Z,2.80
2022-07-27T14:17:43.344Z,3.70
2022-07-27T14:20:10.769Z,2.50
2022-07-27T14:22:37.465Z,2.13
2022-07-27T14:25:04.725Z,2.20
2022-07-27T14:27:36.892Z,2.70
2022-07-27T14:30:08.081Z,2.90
2022-07-27T14:32:35.514Z,2.47
2022-07-27T14:35:04.078Z,2.27
2022-07-27T14:37:30.753Z,2.27
2022-07-27T14:39:58.501Z,2.30
2022-07-27T14:42:28.523Z,2.80
2022-07-27T14:44:55.380Z,2.13
2022-07-27T14:47:22.441Z,2.43
2022-07-27T14:49:49.157Z,2.00
2022-07-27T14:52:17.659Z,2.40
2022-07-27T14:54:47.318Z,2.37
2022-07-27T14:57:14.691Z,2.20
2022-07-27T14:59:41.427Z,2.10
2022-07-27T15:02:08.652Z,2.30
2022-07-27T15:04:35.465Z,2.10
2022-07-27T15:07:02.284Z,1.90
2022-07-27T15:09:30.510Z,2.00
2022-07-27T15:11:58.419Z,1.80
2022-07-27T15:14:25.363Z,2.13
2022-07-27T15:16:54.170Z,2.20
2022-07-27T15:19:20.853Z,2.60
2022-07-27T15:21:47.812Z,3.30
2022-07-27T15:24:14.514Z,2.20
2022-07-27T15:26:41.465Z,2.50
2022-07-27T15:29:10.033Z,2.37
2022-07-27T15:31:41.907Z,2.40
2022-07-27T15:34:11.583Z,2.30
2022-07-27T15:36:44.645Z,1.67
2022-07-27T15:39:14.765Z,2.40
2022-07-27T15:41:41.914Z,2.30
2022-07-27T15:44:09.306Z,2.40
2022-07-27T15:46:36.018Z,1.80
2022-07-27T15:49:02.853Z,1.93
2022-07-27T15:51:31.172Z,2.40
2022-07-27T15:53:57.949Z,2.17
2022-07-27T15:56:25.421Z,2.60
2022-07-27T15:58:52.330Z,2.17
2022-07-27T16:01:21.227Z,1.80
2022-07-27T16:03:49.130Z,1.60
2022-07-27T16:06:19.230Z,2.27
2022-07-27T16:08:47.056Z,2.37
2022-07-27T16:11:13.697Z,2.17
2022-07-27T16:13:40.414Z,2.30
2022-07-27T16:16:22.239Z,1.90
2022-07-27T16:18:49.178Z,2.10
2022-07-27T16:21:15.974Z,2.30
2022-07-27T16:23:42.683Z,2.60
2022-07-27T16:26:09.935Z,3.17
2022-07-27T16:28:42.381Z,2.90
2022-07-27T16:31:11.262Z,2.70
2022-07-27T16:33:38.673Z,2.63
2022-07-27T16:36:06.097Z,2.30
2022-07-27T16:38:35.654Z,2.10
2022-07-27T16:41:06.118Z,2.10
2022-07-27T16:43:37.415Z,1.97
2022-07-27T16:46:07.606Z,2.70
2022-07-27T16:48:41.643Z,3.43
2022-07-27T16:51:10.838Z,2.23
2022-07-27T16:53:39.183Z,2.73
2022-07-27T16:56:06.918Z,2.27
2022-07-27T16:58:34.189Z,2.87
2022-07-27T17:01:01.134Z,2.17
2022-07-27T17:03:27.986Z,2.17
2022-07-27T17:05:54.662Z,2.33
2022-07-27T17:08:21.572Z,2.40
2022-07-27T17:10:54.651Z,2.50
2022-07-27T17:13:21.541Z,3.10
2022-07-27T17:15:48.266Z,4.10
2022-07-27T17:18:16.158Z,3.03
2022-07-27T17:20:42.893Z,2.33
2022-07-27T17:23:11.683Z,2.30
2022-07-27T17:25:38.697Z,2.33
2022-07-27T17:28:05.421Z,2.77
2022-07-27T17:30:36.365Z,1.90
2022-07-27T17:33:05.102Z,2.50
2022-07-27T17:35:32.205Z,2.70
2022-07-27T17:38:07.161Z,2.93
2022-07-27T17:40:35.045Z,1.97
2022-07-27T17:43:02.241Z,2.40
2022-07-27T17:45:28.925Z,2.73
2022-07-27T17:47:55.574Z,2.97
2022-07-27T17:50:22.604Z,2.80
2022-07-27T17:52:49.344Z,2.30
2022-07-27T17:55:16.040Z,2.27
2022-07-27T17:57:44.537Z,1.97
2022-07-27T18:00:31.942Z,2.40
2022-07-27T18:02:58.641Z,2.60
2022-07-27T18:05:25.522Z,1.67
2022-07-27T18:07:53.522Z,2.20
2022-07-27T18:10:40.994Z,2.17
2022-07-27T18:13:08.003Z,1.90
2022-07-27T18:15:47.634Z,1.87
2022-07-27T18:18:15.959Z,1.97
2022-07-27T18:20:45.094Z,2.07
2022-07-27T18:23:12.504Z,2.30
2022-07-27T18:25:39.247Z,2.27
2022-07-27T18:28:06.004Z,2.27
2022-07-27T18:30:32.724Z,2.03
2022-07-27T18:32:59.354Z,2.10
2022-07-27T18:35:26.010Z,1.63
2022-07-27T18:37:52.865Z,2.07
2022-07-27T18:40:21.345Z,2.13
2022-07-27T18:42:48.095Z,2.10
2022-07-27T18:45:14.769Z,2.07
2022-07-27T18:47:41.419Z,1.90
2022-07-27T18:50:16.507Z,2.60
2022-07-27T18:52:43.309Z,2.83
2022-07-27T18:55:10.693Z,2.50
2022-07-27T18:57:37.664Z,1.60
2022-07-27T19:00:05.828Z,2.30
2022-07-27T19:02:38.771Z,3.00
2022-07-27T19:05:08.038Z,2.90
2022-07-27T19:07:38.790Z,3.40
2022-07-27T19:10:08.242Z,2.30
2022-07-27T19:12:35.464Z,2.07
2022-07-27T19:15:02.299Z,2.33
2022-07-27T19:17:31.872Z,1.87
2022-07-27T19:19:58.571Z,2.47
2022-07-27T19:22:27.284Z,2.23
2022-07-27T19:24:55.090Z,2.10
2022-07-27T19:27:22.187Z,2.63
2022-07-27T19:29:48.916Z,2.60
2022-07-27T19:32:16.799Z,2.07
2022-07-27T19:34:43.587Z,1.90
2022-07-27T19:37:10.770Z,1.80
2022-07-27T19:39:57.530Z,1.90
2022-07-27T19:42:24.389Z,1.60
2022-07-27T19:44:51.133Z,2.20
2022-07-27T19:47:18.530Z,2.00
2022-07-27T19:49:45.315Z,2.07
2022-07-27T19:52:12.141Z,2.20
2022-07-27T19:54:39.068Z,2.47
2022-07-27T19:57:05.795Z,3.17
2022-07-27T19:59:55.358Z,3.20
2022-07-27T20:02:19.765Z,2.40
2022-07-27T20:04:46.467Z,3.10
2022-07-27T20:07:13.129Z,3.30
2022-07-27T20:09:39.846Z,2.73
2022-07-27T20:12:08.250Z,2.47
2022-07-27T20:14:35.279Z,2.70
2022-07-27T20:17:02.019Z,2.50
2022-07-27T20:19:29.905Z,2.63
2022-07-27T20:21:57.501Z,2.40
2022-07-27T20:24:24.166Z,2.50
2022-07-27T20:26:50.809Z,3.03
2022-07-27T20:29:17.630Z,2.87
2022-07-27T20:31:44.276Z,2.30
2022-07-27T20:34:11.608Z,1.87
2022-07-27T20:36:38.268Z,2.17
2022-07-27T20:39:07.461Z,2.40
2022-07-27T20:41:34.282Z,2.40
2022-07-27T20:44:00.910Z,2.50
2022-07-27T20:46:27.696Z,2.47
2022-07-27T20:48:54.424Z,2.60
2022-07-27T20:51:21.185Z,2.43
2022-07-27T20:53:49.167Z,2.30
2022-07-27T20:56:15.864Z,2.20
2022-07-27T20:58:42.894Z,2.40
2022-07-27T21:01:09.766Z,2.90
2022-07-27T21:03:36.588Z,3.43
2022-07-27T21:06:03.578Z,2.40
2022-07-27T21:08:30.257Z,2.70
2022-07-27T21:10:56.944Z,2.67
2022-07-27T21:13:23.778Z,3.03
2022-07-27T21:15:50.511Z,2.60
2022-07-27T21:18:17.145Z,2.70
2022-07-27T21:20:43.791Z,2.30
2022-07-27T21:23:28.998Z,2.50
2022-07-27T21:25:55.689Z,1.83
2022-07-27T21:28:25.101Z,2.73
2022-07-27T21:30:52.628Z,2.20
2022-07-27T21:33:19.357Z,2.87
2022-07-27T21:35:46.060Z,2.40
2022-07-27T21:38:12.734Z,2.50
2022-07-27T21:40:39.440Z,2.30
2022-07-27T21:43:06.123Z,2.90
2022-07-27T21:45:32.994Z,2.70
2022-07-27T21:47:59.652Z,2.20
2022-07-27T21:50:26.439Z,2.60
2022-07-27T21:52:53.155Z,2.40
2022-07-27T21:55:22.832Z,2.77
2022-07-27T21:57:50.795Z,2.37
2022-07-27T22:00:24.027Z,2.33
2022-07-27T22:02:51.688Z,2.10
2022-07-27T22:05:18.514Z,2.30
2022-07-27T22:07:45.192Z,2.20
2022-07-27T22:10:11.878Z,3.03
2022-07-27T22:12:38.616Z,2.03
2022-07-27T22:15:05.638Z,2.20
2022-07-27T22:17:32.288Z,2.10
2022-07-27T22:19:58.961Z,2.20
2022-07-27T22:22:25.700Z,2.60
2022-07-27T22:24:52.368Z,2.40
2022-07-27T22:27:19.098Z,2.70
2022-07-27T22:29:45.749Z,2.87
2022-07-27T22:32:12.444Z,2.10
2022-07-27T22:34:39.965Z,2.77
2022-07-27T22:37:06.646Z,3.17
2022-07-27T22:39:34.132Z,2.90
2022-07-27T22:42:02.501Z,2.73
2022-07-27T22:44:29.470Z,2.60
2022-07-27T22:46:56.508Z,3.50
2022-07-27T22:49:23.400Z,2.77
2022-07-27T22:51:52.832Z,3.20
2022-07-27T22:54:21.642Z,2.90
2022-07-27T22:56:48.455Z,2.57
2022-07-27T22:59:15.278Z,2.30
2022-07-27T23:01:47.309Z,2.30
2022-07-27T23:04:16.024Z,3.03
2022-07-27T23:06:43.301Z,3.47
2022-07-27T23:09:09.944Z,2.67
2022-07-27T23:11:36.664Z,2.13
2022-07-27T23:14:03.686Z,2.77
2022-07-27T23:16:30.337Z,2.47
2022-07-27T23:18:57.156Z,2.73
2022-07-27T23:21:23.822Z,2.57
2022-07-27T23:23:53.778Z,2.13
2022-07-27T23:26:25.815Z,2.67
2022-07-27T23:28:53.687Z,2.87
2022-07-27T23:31:20.741Z,3.10
2022-07-27T23:33:47.497Z,3.00
2022-07-27T23:36:14.528Z,2.33
2022-07-27T23:38:41.545Z,2.60
2022-07-27T23:41:08.364Z,2.60
2022-07-27T23:43:35.140Z,2.67
2022-07-27T23:46:02.713Z,2.47
2022-07-27T23:48:29.383Z,3.30
2022-07-27T23:50:56.177Z,2.57
2022-07-27T23:53:23.838Z,2.83
2022-07-27T23:55:50.574Z,2.67
2022-07-27T23:58:17.228Z,2.93
